Terminal Aerodrome Forecast
Issued by NWS Shreveport, LA

Home | Current Version | Previous Version | Text Only | Print | Product List | Glossary On
Versions: 1 2 3 4 5 6 7 8 9 10 11 12 13 14 15
791
FTUS44 KSHV 141722
TAFTXK
TAF
KTXK 141722Z 1418/1518 17010KT P6SM SCT025 OVC045
      TEMPO 1418/1421 BKN015
     FM150000 16007KT P6SM VCSH SCT035 BKN045
      TEMPO 1500/1504 3SM -SHRA BR OVC010
     FM150400 15007KT P6SM VCTS OVC008CB
      TEMPO 1509/1512 2SM TSRA BR OVC004CB
     FM151200 35010KT 3SM -TSRA BR OVC004CB
      TEMPO 1514/1518 35012G18KT 3SM -TSRA BR OVC015CB=

USA.gov is the U.S. government's official web portal to all federal, state and local government web resources and services.